sensor_id;sensor_type;location;lat;lon;timestamp;pressure;altitude;pressure_sealevel;temperature;humidity
76808;BME280;65758;45.458;11.062;2024-01-06T00:02:06;99537.23;;;11.00;80.64
76808;BME280;65758;45.458;11.062;2024-01-06T00:04:32;99539.86;;;11.01;80.48
76808;BME280;65758;45.458;11.062;2024-01-06T00:06:58;99535.31;;;11.00;80.58
76808;BME280;65758;45.458;11.062;2024-01-06T00:09:25;99531.15;;;11.00;80.63
76808;BME280;65758;45.458;11.062;2024-01-06T00:11:51;99527.20;;;11.04;81.15
76808;BME280;65758;45.458;11.062;2024-01-06T00:14:17;99521.11;;;11.09;80.42
76808;BME280;65758;45.458;11.062;2024-01-06T00:16:43;99512.41;;;11.10;80.55
76808;BME280;65758;45.458;11.062;2024-01-06T00:19:09;99508.70;;;11.11;80.85
76808;BME280;65758;45.458;11.062;2024-01-06T00:21:36;99502.29;;;11.12;80.31
76808;BME280;65758;45.458;11.062;2024-01-06T00:24:02;99497.59;;;11.11;80.76
76808;BME280;65758;45.458;11.062;2024-01-06T00:26:28;99494.35;;;11.12;80.34
76808;BME280;65758;45.458;11.062;2024-01-06T00:28:54;99491.79;;;11.13;80.11
76808;BME280;65758;45.458;11.062;2024-01-06T00:31:21;99484.14;;;11.14;80.45
76808;BME280;65758;45.458;11.062;2024-01-06T00:33:47;99476.03;;;11.14;80.26
76808;BME280;65758;45.458;11.062;2024-01-06T00:36:13;99471.52;;;11.12;80.18
76808;BME280;65758;45.458;11.062;2024-01-06T00:38:40;99470.86;;;11.11;80.45
76808;BME280;65758;45.458;11.062;2024-01-06T00:41:06;99466.38;;;11.11;79.97
76808;BME280;65758;45.458;11.062;2024-01-06T00:43:32;99459.04;;;11.12;79.96
76808;BME280;65758;45.458;11.062;2024-01-06T00:45:58;99456.42;;;11.13;80.26
76808;BME280;65758;45.458;11.062;2024-01-06T00:48:24;99445.83;;;11.12;80.16
76808;BME280;65758;45.458;11.062;2024-01-06T00:50:50;99443.23;;;11.11;79.51
76808;BME280;65758;45.458;11.062;2024-01-06T00:53:16;99446.16;;;11.10;80.02
76808;BME280;65758;45.458;11.062;2024-01-06T00:55:42;99439.98;;;11.10;79.91
76808;BME280;65758;45.458;11.062;2024-01-06T00:58:08;99432.20;;;11.10;79.58
76808;BME280;65758;45.458;11.062;2024-01-06T01:00:35;99433.58;;;11.13;79.31
76808;BME280;65758;45.458;11.062;2024-01-06T01:03:01;99427.53;;;11.15;79.51
76808;BME280;65758;45.458;11.062;2024-01-06T01:05:27;99423.48;;;11.15;78.94
76808;BME280;65758;45.458;11.062;2024-01-06T01:07:53;99425.63;;;11.15;79.40
76808;BME280;65758;45.458;11.062;2024-01-06T01:10:20;99438.44;;;11.16;79.26
76808;BME280;65758;45.458;11.062;2024-01-06T01:12:46;99432.55;;;11.19;78.87
76808;BME280;65758;45.458;11.062;2024-01-06T01:15:12;99429.86;;;11.20;79.25
76808;BME280;65758;45.458;11.062;2024-01-06T01:17:38;99428.65;;;11.20;79.02
76808;BME280;65758;45.458;11.062;2024-01-06T01:20:05;99431.17;;;11.20;78.99
76808;BME280;65758;45.458;11.062;2024-01-06T01:22:31;99431.52;;;11.21;78.96
76808;BME280;65758;45.458;11.062;2024-01-06T01:24:57;99432.91;;;11.22;78.61
76808;BME280;65758;45.458;11.062;2024-01-06T01:27:23;99432.45;;;11.21;78.96
76808;BME280;65758;45.458;11.062;2024-01-06T01:29:49;99436.02;;;11.22;79.02
76808;BME280;65758;45.458;11.062;2024-01-06T01:32:18;99439.91;;;11.23;79.13
76808;BME280;65758;45.458;11.062;2024-01-06T01:34:45;99430.92;;;11.24;79.03
76808;BME280;65758;45.458;11.062;2024-01-06T01:37:11;99427.91;;;11.24;79.18
76808;BME280;65758;45.458;11.062;2024-01-06T01:39:37;99428.17;;;11.23;79.00
76808;BME280;65758;45.458;11.062;2024-01-06T01:42:03;99424.40;;;11.23;79.21
76808;BME280;65758;45.458;11.062;2024-01-06T01:44:30;99426.34;;;11.25;79.31
76808;BME280;65758;45.458;11.062;2024-01-06T01:46:56;99410.50;;;11.24;79.22
76808;BME280;65758;45.458;11.062;2024-01-06T01:49:22;99401.30;;;11.23;79.02
76808;BME280;65758;45.458;11.062;2024-01-06T01:51:49;99387.23;;;11.22;79.25
76808;BME280;65758;45.458;11.062;2024-01-06T01:54:16;99381.15;;;11.23;79.44
76808;BME280;65758;45.458;11.062;2024-01-06T01:56:42;99382.25;;;11.23;79.31
76808;BME280;65758;45.458;11.062;2024-01-06T01:59:11;99385.09;;;11.23;79.17
76808;BME280;65758;45.458;11.062;2024-01-06T02:01:41;99386.19;;;11.22;79.34
76808;BME280;65758;45.458;11.062;2024-01-06T02:04:09;99385.14;;;11.22;79.17
76808;BME280;65758;45.458;11.062;2024-01-06T02:06:35;99387.88;;;11.24;79.32
76808;BME280;65758;45.458;11.062;2024-01-06T02:09:01;99387.31;;;11.26;79.43
76808;BME280;65758;45.458;11.062;2024-01-06T02:11:28;99383.69;;;11.28;79.80
76808;BME280;65758;45.458;11.062;2024-01-06T02:13:55;99383.70;;;11.30;79.87
76808;BME280;65758;45.458;11.062;2024-01-06T02:16:21;99384.75;;;11.30;79.33
76808;BME280;65758;45.458;11.062;2024-01-06T02:18:47;99381.23;;;11.28;79.22
76808;BME280;65758;45.458;11.062;2024-01-06T02:21:14;99379.15;;;11.27;79.18
76808;BME280;65758;45.458;11.062;2024-01-06T02:23:40;99375.04;;;11.26;79.32
76808;BME280;65758;45.458;11.062;2024-01-06T02:26:06;99374.05;;;11.28;79.21
76808;BME280;65758;45.458;11.062;2024-01-06T02:28:32;99373.52;;;11.29;79.54
76808;BME280;65758;45.458;11.062;2024-01-06T02:30:58;99373.04;;;11.30;79.41
76808;BME280;65758;45.458;11.062;2024-01-06T02:33:25;99371.77;;;11.29;79.18
76808;BME280;65758;45.458;11.062;2024-01-06T02:35:51;99371.33;;;11.29;79.64
76808;BME280;65758;45.458;11.062;2024-01-06T02:38:17;99371.97;;;11.26;79.48
76808;BME280;65758;45.458;11.062;2024-01-06T02:40:43;99370.42;;;11.24;79.74
76808;BME280;65758;45.458;11.062;2024-01-06T02:43:09;99371.13;;;11.25;79.68
76808;BME280;65758;45.458;11.062;2024-01-06T02:45:36;99372.80;;;11.26;80.25
76808;BME280;65758;45.458;11.062;2024-01-06T02:48:02;99371.22;;;11.29;80.29
76808;BME280;65758;45.458;11.062;2024-01-06T02:50:28;99370.63;;;11.31;80.35
76808;BME280;65758;45.458;11.062;2024-01-06T02:52:54;99369.04;;;11.32;80.69
76808;BME280;65758;45.458;11.062;2024-01-06T02:55:21;99367.78;;;11.32;80.39
76808;BME280;65758;45.458;11.062;2024-01-06T02:57:47;99371.77;;;11.32;81.19
76808;BME280;65758;45.458;11.062;2024-01-06T03:00:13;99363.71;;;11.28;81.13
76808;BME280;65758;45.458;11.062;2024-01-06T03:02:39;99365.83;;;11.26;81.47
76808;BME280;65758;45.458;11.062;2024-01-06T03:05:09;99362.42;;;11.24;81.09
76808;BME280;65758;45.458;11.062;2024-01-06T03:07:36;99366.42;;;11.25;81.20
76808;BME280;65758;45.458;11.062;2024-01-06T03:10:02;99367.36;;;11.27;81.09
76808;BME280;65758;45.458;11.062;2024-01-06T03:12:29;99368.96;;;11.29;81.22
76808;BME280;65758;45.458;11.062;2024-01-06T03:14:55;99373.18;;;11.29;81.20
76808;BME280;65758;45.458;11.062;2024-01-06T03:17:21;99367.69;;;11.25;81.42
76808;BME280;65758;45.458;11.062;2024-01-06T03:19:47;99369.96;;;11.21;81.33
76808;BME280;65758;45.458;11.062;2024-01-06T03:22:13;99373.17;;;11.19;81.24
76808;BME280;65758;45.458;11.062;2024-01-06T03:24:39;99376.30;;;11.20;81.04
76808;BME280;65758;45.458;11.062;2024-01-06T03:27:05;99381.30;;;11.21;81.03
76808;BME280;65758;45.458;11.062;2024-01-06T03:29:32;99382.27;;;11.19;80.97
76808;BME280;65758;45.458;11.062;2024-01-06T03:31:58;99380.94;;;11.15;80.97
76808;BME280;65758;45.458;11.062;2024-01-06T03:34:24;99377.84;;;11.12;80.85
76808;BME280;65758;45.458;11.062;2024-01-06T03:36:50;99370.38;;;11.08;80.80
76808;BME280;65758;45.458;11.062;2024-01-06T03:39:17;99373.98;;;11.07;80.86
76808;BME280;65758;45.458;11.062;2024-01-06T03:41:43;99373.56;;;11.03;80.56
76808;BME280;65758;45.458;11.062;2024-01-06T03:44:09;99368.27;;;10.97;80.86
76808;BME280;65758;45.458;11.062;2024-01-06T03:46:35;99364.98;;;10.97;81.13
76808;BME280;65758;45.458;11.062;2024-01-06T03:49:02;99366.24;;;10.96;81.38
76808;BME280;65758;45.458;11.062;2024-01-06T03:51:28;99371.88;;;10.97;81.37
76808;BME280;65758;45.458;11.062;2024-01-06T03:53:54;99369.15;;;10.96;81.15
76808;BME280;65758;45.458;11.062;2024-01-06T03:56:20;99364.94;;;10.98;81.43
76808;BME280;65758;45.458;11.062;2024-01-06T03:58:46;99365.17;;;11.01;81.50
76808;BME280;65758;45.458;11.062;2024-01-06T04:01:13;99364.69;;;11.04;81.19
76808;BME280;65758;45.458;11.062;2024-01-06T04:03:39;99363.85;;;11.07;81.16
76808;BME280;65758;45.458;11.062;2024-01-06T04:06:08;99367.08;;;11.07;81.35
76808;BME280;65758;45.458;11.062;2024-01-06T04:08:36;99364.48;;;11.04;81.17
76808;BME280;65758;45.458;11.062;2024-01-06T04:11:02;99368.46;;;11.00;81.23
76808;BME280;65758;45.458;11.062;2024-01-06T04:13:28;99368.58;;;10.94;81.25
76808;BME280;65758;45.458;11.062;2024-01-06T04:15:54;99374.96;;;10.91;81.70
76808;BME280;65758;45.458;11.062;2024-01-06T04:18:21;99377.75;;;10.91;81.66
76808;BME280;65758;45.458;11.062;2024-01-06T04:20:47;99379.23;;;10.91;81.74
76808;BME280;65758;45.458;11.062;2024-01-06T04:23:13;99382.64;;;10.94;81.71
76808;BME280;65758;45.458;11.062;2024-01-06T04:25:39;99380.20;;;10.95;81.22
76808;BME280;65758;45.458;11.062;2024-01-06T04:28:05;99376.70;;;10.95;81.38
76808;BME280;65758;45.458;11.062;2024-01-06T04:30:31;99378.23;;;10.95;81.26
76808;BME280;65758;45.458;11.062;2024-01-06T04:32:57;99372.17;;;10.93;81.56
76808;BME280;65758;45.458;11.062;2024-01-06T04:35:25;99378.10;;;10.94;81.60
76808;BME280;65758;45.458;11.062;2024-01-06T04:37:51;99377.17;;;10.94;81.54
76808;BME280;65758;45.458;11.062;2024-01-06T04:40:17;99375.52;;;10.94;81.65
76808;BME280;65758;45.458;11.062;2024-01-06T04:42:43;99374.93;;;10.94;81.54
76808;BME280;65758;45.458;11.062;2024-01-06T04:45:09;99369.38;;;10.92;81.58
76808;BME280;65758;45.458;11.062;2024-01-06T04:47:36;99376.81;;;10.91;81.71
76808;BME280;65758;45.458;11.062;2024-01-06T04:50:02;99380.30;;;10.87;81.67
76808;BME280;65758;45.458;11.062;2024-01-06T04:52:28;99382.84;;;10.86;81.42
76808;BME280;65758;45.458;11.062;2024-01-06T04:54:56;99383.22;;;10.85;81.64
76808;BME280;65758;45.458;11.062;2024-01-06T04:57:22;99386.45;;;10.85;81.78
76808;BME280;65758;45.458;11.062;2024-01-06T04:59:48;99389.80;;;10.84;81.34
76808;BME280;65758;45.458;11.062;2024-01-06T05:02:15;99390.55;;;10.83;81.33
76808;BME280;65758;45.458;11.062;2024-01-06T05:04:41;99395.85;;;10.81;81.45
76808;BME280;65758;45.458;11.062;2024-01-06T05:07:07;99393.67;;;10.77;81.40
76808;BME280;65758;45.458;11.062;2024-01-06T05:09:33;99396.42;;;10.72;81.21
76808;BME280;65758;45.458;11.062;2024-01-06T05:11:59;99393.60;;;10.68;81.15
76808;BME280;65758;45.458;11.062;2024-01-06T05:14:25;99395.33;;;10.65;80.88
76808;BME280;65758;45.458;11.062;2024-01-06T05:16:51;99392.27;;;10.65;81.27
76808;BME280;65758;45.458;11.062;2024-01-06T05:19:17;99391.83;;;10.65;81.34
76808;BME280;65758;45.458;11.062;2024-01-06T05:21:47;99388.85;;;10.63;81.62
76808;BME280;65758;45.458;11.062;2024-01-06T05:24:13;99389.55;;;10.63;81.57
76808;BME280;65758;45.458;11.062;2024-01-06T05:26:40;99385.55;;;10.60;81.03
76808;BME280;65758;45.458;11.062;2024-01-06T05:29:07;99384.23;;;10.61;81.38
76808;BME280;65758;45.458;11.062;2024-01-06T05:31:33;99381.41;;;10.61;81.66
76808;BME280;65758;45.458;11.062;2024-01-06T05:33:59;99385.34;;;10.61;81.65
76808;BME280;65758;45.458;11.062;2024-01-06T05:36:26;99385.50;;;10.62;81.19
76808;BME280;65758;45.458;11.062;2024-01-06T05:38:52;99386.28;;;10.64;81.67
76808;BME280;65758;45.458;11.062;2024-01-06T05:41:19;99386.99;;;10.64;81.26
76808;BME280;65758;45.458;11.062;2024-01-06T05:43:45;99390.38;;;10.62;81.03
76808;BME280;65758;45.458;11.062;2024-01-06T05:46:11;99386.09;;;10.60;81.07
76808;BME280;65758;45.458;11.062;2024-01-06T05:48:37;99384.88;;;10.60;81.63
76808;BME280;65758;45.458;11.062;2024-01-06T05:51:04;99383.36;;;10.60;81.69
76808;BME280;65758;45.458;11.062;2024-01-06T05:53:31;99379.00;;;10.62;81.65
76808;BME280;65758;45.458;11.062;2024-01-06T05:55:57;99379.23;;;10.66;81.46
76808;BME280;65758;45.458;11.062;2024-01-06T05:58:24;99378.14;;;10.66;81.30
76808;BME280;65758;45.458;11.062;2024-01-06T06:00:50;99374.08;;;10.64;81.34
76808;BME280;65758;45.458;11.062;2024-01-06T06:03:17;99374.13;;;10.61;81.56
76808;BME280;65758;45.458;11.062;2024-01-06T06:05:43;99377.01;;;10.60;81.51
76808;BME280;65758;45.458;11.062;2024-01-06T06:08:10;99379.88;;;10.63;81.52
76808;BME280;65758;45.458;11.062;2024-01-06T06:10:37;99377.92;;;10.67;81.43
76808;BME280;65758;45.458;11.062;2024-01-06T06:13:07;99377.79;;;10.68;81.47
76808;BME280;65758;45.458;11.062;2024-01-06T06:15:37;99376.70;;;10.68;81.60
76808;BME280;65758;45.458;11.062;2024-01-06T06:18:03;99379.75;;;10.68;81.66
76808;BME280;65758;45.458;11.062;2024-01-06T06:20:30;99381.33;;;10.67;81.68
76808;BME280;65758;45.458;11.062;2024-01-06T06:22:56;99380.63;;;10.68;81.92
76808;BME280;65758;45.458;11.062;2024-01-06T06:25:22;99385.68;;;10.70;81.67
76808;BME280;65758;45.458;11.062;2024-01-06T06:27:48;99388.79;;;10.74;81.54
76808;BME280;65758;45.458;11.062;2024-01-06T06:30:14;99388.77;;;10.79;81.82
76808;BME280;65758;45.458;11.062;2024-01-06T06:32:41;99388.19;;;10.82;81.75
76808;BME280;65758;45.458;11.062;2024-01-06T06:35:08;99391.14;;;10.82;81.51
76808;BME280;65758;45.458;11.062;2024-01-06T06:37:34;99391.13;;;10.81;81.55
76808;BME280;65758;45.458;11.062;2024-01-06T06:40:00;99391.36;;;10.81;81.83
76808;BME280;65758;45.458;11.062;2024-01-06T06:42:27;99389.93;;;10.80;81.40
76808;BME280;65758;45.458;11.062;2024-01-06T06:44:53;99390.52;;;10.79;81.49
76808;BME280;65758;45.458;11.062;2024-01-06T06:47:19;99388.48;;;10.78;81.22
76808;BME280;65758;45.458;11.062;2024-01-06T06:49:46;99389.30;;;10.79;81.51
76808;BME280;65758;45.458;11.062;2024-01-06T06:52:12;99387.65;;;10.78;81.32
76808;BME280;65758;45.458;11.062;2024-01-06T06:54:39;99386.88;;;10.76;81.63
76808;BME280;65758;45.458;11.062;2024-01-06T06:57:05;99388.23;;;10.74;81.42
76808;BME280;65758;45.458;11.062;2024-01-06T06:59:31;99388.73;;;10.73;81.25
76808;BME280;65758;45.458;11.062;2024-01-06T07:01:57;99391.95;;;10.73;81.35
76808;BME280;65758;45.458;11.062;2024-01-06T07:04:26;99389.31;;;10.73;81.48
76808;BME280;65758;45.458;11.062;2024-01-06T07:06:52;99387.03;;;10.75;81.63
76808;BME280;65758;45.458;11.062;2024-01-06T07:09:19;99383.39;;;10.76;81.47
76808;BME280;65758;45.458;11.062;2024-01-06T07:11:49;99385.02;;;10.75;81.20
76808;BME280;65758;45.458;11.062;2024-01-06T07:14:16;99385.98;;;10.73;81.56
76808;BME280;65758;45.458;11.062;2024-01-06T07:16:42;99385.13;;;10.69;81.53
76808;BME280;65758;45.458;11.062;2024-01-06T07:19:08;99384.91;;;10.69;81.85
76808;BME280;65758;45.458;11.062;2024-01-06T07:21:34;99384.66;;;10.72;81.86
76808;BME280;65758;45.458;11.062;2024-01-06T07:24:01;99383.98;;;10.76;82.15
76808;BME280;65758;45.458;11.062;2024-01-06T07:26:29;99385.19;;;10.77;81.91
76808;BME280;65758;45.458;11.062;2024-01-06T07:28:55;99385.14;;;10.78;81.86
76808;BME280;65758;45.458;11.062;2024-01-06T07:31:21;99386.29;;;10.78;81.72
76808;BME280;65758;45.458;11.062;2024-01-06T07:33:48;99383.16;;;10.77;81.98
76808;BME280;65758;45.458;11.062;2024-01-06T07:36:14;99383.73;;;10.78;81.94
76808;BME280;65758;45.458;11.062;2024-01-06T07:38:41;99379.31;;;10.80;81.73
76808;BME280;65758;45.458;11.062;2024-01-06T07:41:07;99383.50;;;10.84;81.86
76808;BME280;65758;45.458;11.062;2024-01-06T07:43:33;99382.40;;;10.85;81.81
76808;BME280;65758;45.458;11.062;2024-01-06T07:46:00;99379.45;;;10.84;81.78
76808;BME280;65758;45.458;11.062;2024-01-06T07:48:26;99385.15;;;10.84;81.73
76808;BME280;65758;45.458;11.062;2024-01-06T07:50:52;99384.73;;;10.82;81.61
76808;BME280;65758;45.458;11.062;2024-01-06T07:53:18;99384.45;;;10.79;81.48
76808;BME280;65758;45.458;11.062;2024-01-06T07:55:44;99389.52;;;10.77;81.73
76808;BME280;65758;45.458;11.062;2024-01-06T07:58:10;99385.19;;;10.76;81.48
76808;BME280;65758;45.458;11.062;2024-01-06T08:00:37;99382.83;;;10.76;82.09
76808;BME280;65758;45.458;11.062;2024-01-06T08:03:04;99384.23;;;10.80;81.73
76808;BME280;65758;45.458;11.062;2024-01-06T08:05:32;99380.69;;;10.80;81.45
76808;BME280;65758;45.458;11.062;2024-01-06T08:07:58;99385.16;;;10.80;81.30
76808;BME280;65758;45.458;11.062;2024-01-06T08:10:24;99385.77;;;10.80;81.89
76808;BME280;65758;45.458;11.062;2024-01-06T08:12:50;99382.50;;;10.81;81.85
76808;BME280;65758;45.458;11.062;2024-01-06T08:15:17;99380.64;;;10.83;81.46
76808;BME280;65758;45.458;11.062;2024-01-06T08:17:43;99377.05;;;10.85;81.80
76808;BME280;65758;45.458;11.062;2024-01-06T08:20:09;99378.55;;;10.87;81.60
76808;BME280;65758;45.458;11.062;2024-01-06T08:22:35;99376.19;;;10.87;81.47
76808;BME280;65758;45.458;11.062;2024-01-06T08:25:02;99378.04;;;10.86;81.70
76808;BME280;65758;45.458;11.062;2024-01-06T08:27:28;99374.58;;;10.86;82.17
76808;BME280;65758;45.458;11.062;2024-01-06T08:29:55;99375.04;;;10.86;81.80
76808;BME280;65758;45.458;11.062;2024-01-06T08:32:21;99378.00;;;10.89;81.83
76808;BME280;65758;45.458;11.062;2024-01-06T08:51:47;99383.76;;;11.58;80.70
76808;BME280;65758;45.458;11.062;2024-01-06T08:54:14;99388.57;;;11.68;80.33
76808;BME280;65758;45.458;11.062;2024-01-06T08:56:41;99390.20;;;11.65;80.24
76808;BME280;65758;45.458;11.062;2024-01-06T08:59:08;99391.23;;;11.64;80.31
76808;BME280;65758;45.458;11.062;2024-01-06T09:01:34;99393.91;;;11.64;80.21
76808;BME280;65758;45.458;11.062;2024-01-06T09:04:03;99394.23;;;11.62;80.31
76808;BME280;65758;45.458;11.062;2024-01-06T09:06:30;99401.84;;;11.59;80.40
76808;BME280;65758;45.458;11.062;2024-01-06T09:08:58;99406.79;;;11.52;80.20
76808;BME280;65758;45.458;11.062;2024-01-06T09:11:24;99409.28;;;11.46;80.28
76808;BME280;65758;45.458;11.062;2024-01-06T09:13:51;99410.27;;;11.41;80.28
76808;BME280;65758;45.458;11.062;2024-01-06T09:16:19;99408.39;;;11.37;80.25
76808;BME280;65758;45.458;11.062;2024-01-06T09:18:46;99408.82;;;11.33;80.26
76808;BME280;65758;45.458;11.062;2024-01-06T09:21:13;99410.44;;;11.32;80.40
76808;BME280;65758;45.458;11.062;2024-01-06T09:23:40;99411.46;;;11.28;80.55
76808;BME280;65758;45.458;11.062;2024-01-06T09:26:07;99411.43;;;11.24;80.62
76808;BME280;65758;45.458;11.062;2024-01-06T09:28:33;99411.40;;;11.19;80.63
76808;BME280;65758;45.458;11.062;2024-01-06T09:31:00;99415.92;;;11.14;80.79
76808;BME280;65758;45.458;11.062;2024-01-06T09:33:27;99414.56;;;11.10;80.72
76808;BME280;65758;45.458;11.062;2024-01-06T09:35:54;99411.48;;;11.08;80.99
76808;BME280;65758;45.458;11.062;2024-01-06T09:38:21;99409.08;;;11.08;81.22
76808;BME280;65758;45.458;11.062;2024-01-06T09:40:48;99403.27;;;11.09;81.18
76808;BME280;65758;45.458;11.062;2024-01-06T09:43:16;99406.17;;;11.09;81.26
76808;BME280;65758;45.458;11.062;2024-01-06T09:45:45;99406.66;;;11.09;81.32
76808;BME280;65758;45.458;11.062;2024-01-06T09:48:16;99405.61;;;11.12;81.22
76808;BME280;65758;45.458;11.062;2024-01-06T09:50:45;99399.97;;;11.13;81.42
76808;BME280;65758;45.458;11.062;2024-01-06T09:53:13;99396.84;;;11.11;81.39
76808;BME280;65758;45.458;11.062;2024-01-06T09:55:40;99394.59;;;11.11;81.40
76808;BME280;65758;45.458;11.062;2024-01-06T09:58:08;99395.69;;;11.10;81.44
76808;BME280;65758;45.458;11.062;2024-01-06T10:00:35;99393.55;;;11.12;81.61
76808;BME280;65758;45.458;11.062;2024-01-06T10:03:03;99394.73;;;11.16;81.61
76808;BME280;65758;45.458;11.062;2024-01-06T10:05:29;99394.44;;;11.21;81.77
76808;BME280;65758;45.458;11.062;2024-01-06T10:07:58;99395.95;;;11.24;81.59
76808;BME280;65758;45.458;11.062;2024-01-06T10:10:27;99391.02;;;11.25;81.51
76808;BME280;65758;45.458;11.062;2024-01-06T10:12:53;99389.81;;;11.25;81.44
76808;BME280;65758;45.458;11.062;2024-01-06T10:15:23;99391.45;;;11.25;81.43
76808;BME280;65758;45.458;11.062;2024-01-06T10:17:50;99388.02;;;11.26;81.43
76808;BME280;65758;45.458;11.062;2024-01-06T10:20:17;99385.56;;;11.29;81.60
76808;BME280;65758;45.458;11.062;2024-01-06T10:22:44;99385.92;;;11.34;81.81
76808;BME280;65758;45.458;11.062;2024-01-06T10:25:12;99384.36;;;11.39;81.62
76808;BME280;65758;45.458;11.062;2024-01-06T10:27:40;99385.09;;;11.41;81.39
76808;BME280;65758;45.458;11.062;2024-01-06T10:30:08;99384.10;;;11.40;81.40
76808;BME280;65758;45.458;11.062;2024-01-06T10:32:36;99381.71;;;11.38;81.18
76808;BME280;65758;45.458;11.062;2024-01-06T10:35:04;99382.98;;;11.38;81.37
76808;BME280;65758;45.458;11.062;2024-01-06T10:37:33;99377.90;;;11.40;81.44
76808;BME280;65758;45.458;11.062;2024-01-06T10:40:15;99375.72;;;11.42;81.54
76808;BME280;65758;45.458;11.062;2024-01-06T10:42:45;99374.25;;;11.43;81.14
76808;BME280;65758;45.458;11.062;2024-01-06T10:45:13;99373.86;;;11.41;81.18
76808;BME280;65758;45.458;11.062;2024-01-06T10:47:42;99369.67;;;11.38;81.14
76808;BME280;65758;45.458;11.062;2024-01-06T10:50:10;99366.05;;;11.34;81.04
76808;BME280;65758;45.458;11.062;2024-01-06T10:52:38;99368.23;;;11.33;81.55
76808;BME280;65758;45.458;11.062;2024-01-06T10:55:06;99362.38;;;11.37;81.74
76808;BME280;65758;45.458;11.062;2024-01-06T10:57:33;99357.10;;;11.43;81.52
76808;BME280;65758;45.458;11.062;2024-01-06T11:00:01;99355.27;;;11.46;81.41
76808;BME280;65758;45.458;11.062;2024-01-06T11:02:29;99351.60;;;11.49;81.22
76808;BME280;65758;45.458;11.062;2024-01-06T11:04:57;99351.29;;;11.51;81.32
76808;BME280;65758;45.458;11.062;2024-01-06T11:07:25;99347.45;;;11.49;81.23
76808;BME280;65758;45.458;11.062;2024-01-06T11:12:20;99339.16;;;11.45;81.28
76808;BME280;65758;45.458;11.062;2024-01-06T11:14:49;99336.52;;;11.47;81.29
76808;BME280;65758;45.458;11.062;2024-01-06T11:20:24;99337.48;;;11.51;81.24
76808;BME280;65758;45.458;11.062;2024-01-06T11:22:53;99334.02;;;11.49;81.26
76808;BME280;65758;45.458;11.062;2024-01-06T11:25:21;99331.48;;;11.47;81.32
76808;BME280;65758;45.458;11.062;2024-01-06T11:27:50;99331.64;;;11.46;81.22
76808;BME280;65758;45.458;11.062;2024-01-06T11:30:20;99330.43;;;11.46;81.35
76808;BME280;65758;45.458;11.062;2024-01-06T11:32:48;99329.73;;;11.45;81.14
76808;BME280;65758;45.458;11.062;2024-01-06T11:35:20;99328.47;;;11.46;81.34
76808;BME280;65758;45.458;11.062;2024-01-06T11:42:48;99322.14;;;11.49;81.22
76808;BME280;65758;45.458;11.062;2024-01-06T11:45:24;99323.44;;;11.45;81.22
76808;BME280;65758;45.458;11.062;2024-01-06T11:47:55;99323.09;;;11.43;81.07
76808;BME280;65758;45.458;11.062;2024-01-06T11:50:27;99322.38;;;11.41;81.13
76808;BME280;65758;45.458;11.062;2024-01-06T11:52:55;99321.39;;;11.41;81.07
76808;BME280;65758;45.458;11.062;2024-01-06T11:55:22;99319.36;;;11.43;81.19
76808;BME280;65758;45.458;11.062;2024-01-06T11:57:49;99318.34;;;11.45;81.19
76808;BME280;65758;45.458;11.062;2024-01-06T12:00:19;99320.02;;;11.46;81.16
76808;BME280;65758;45.458;11.062;2024-01-06T12:02:46;99316.75;;;11.45;81.24
76808;BME280;65758;45.458;11.062;2024-01-06T12:05:18;99312.05;;;11.45;81.20
76808;BME280;65758;45.458;11.062;2024-01-06T12:07:58;99313.13;;;11.44;81.25
76808;BME280;65758;45.458;11.062;2024-01-06T12:10:27;99309.30;;;11.45;81.36
76808;BME280;65758;45.458;11.062;2024-01-06T12:12:58;99309.67;;;11.47;81.08
76808;BME280;65758;45.458;11.062;2024-01-06T12:15:31;99305.75;;;11.48;81.14
76808;BME280;65758;45.458;11.062;2024-01-06T12:17:59;99301.70;;;11.49;81.04
76808;BME280;65758;45.458;11.062;2024-01-06T12:20:29;99298.08;;;11.50;80.98
76808;BME280;65758;45.458;11.062;2024-01-06T12:22:56;99296.50;;;11.51;81.29
76808;BME280;65758;45.458;11.062;2024-01-06T12:25:24;99292.84;;;11.54;81.15
76808;BME280;65758;45.458;11.062;2024-01-06T12:27:52;99289.29;;;11.58;81.08
76808;BME280;65758;45.458;11.062;2024-01-06T12:30:22;99289.52;;;11.61;81.00
76808;BME280;65758;45.458;11.062;2024-01-06T12:32:50;99286.94;;;11.62;80.95
76808;BME280;65758;45.458;11.062;2024-01-06T12:35:20;99285.08;;;11.62;80.88
76808;BME280;65758;45.458;11.062;2024-01-06T12:37:48;99278.77;;;11.62;81.01
76808;BME280;65758;45.458;11.062;2024-01-06T12:40:16;99279.33;;;11.60;81.03
76808;BME280;65758;45.458;11.062;2024-01-06T12:42:44;99276.74;;;11.59;81.06
76808;BME280;65758;45.458;11.062;2024-01-06T12:45:12;99281.62;;;11.59;80.98
76808;BME280;65758;45.458;11.062;2024-01-06T12:47:40;99281.63;;;11.59;80.93
76808;BME280;65758;45.458;11.062;2024-01-06T12:50:08;99272.04;;;11.61;81.13
76808;BME280;65758;45.458;11.062;2024-01-06T12:52:35;99266.01;;;11.63;81.17
76808;BME280;65758;45.458;11.062;2024-01-06T12:55:02;99265.64;;;11.65;81.10
76808;BME280;65758;45.458;11.062;2024-01-06T12:57:30;99261.76;;;11.65;80.93
76808;BME280;65758;45.458;11.062;2024-01-06T12:59:57;99254.69;;;11.64;81.03
76808;BME280;65758;45.458;11.062;2024-01-06T13:02:24;99254.90;;;11.65;80.96
76808;BME280;65758;45.458;11.062;2024-01-06T13:04:51;99250.57;;;11.65;80.91
76808;BME280;65758;45.458;11.062;2024-01-06T13:07:18;99240.66;;;11.67;81.09
76808;BME280;65758;45.458;11.062;2024-01-06T13:09:45;99229.75;;;11.68;81.02
76808;BME280;65758;45.458;11.062;2024-01-06T13:12:12;99227.11;;;11.70;81.38
76808;BME280;65758;45.458;11.062;2024-01-06T13:14:38;99229.99;;;11.71;81.52
76808;BME280;65758;45.458;11.062;2024-01-06T13:17:05;99228.70;;;11.72;81.33